USCGC Healy — NEPP — position and weather

sailwx.info

Track history (hours):
 
Tides and Currents Weather Stations Pressure Air Temp Water Temp Dewpoint Dewpoint Depression Visibility Wind Speed Wind Dir Waves Ship Positions

Oceanographic research ship USCGC Healy (USA)

Detailed information on ship capabilities available from University of Delaware's Ocean Information Center and ARCUS's ALIAS (Arctic Logistics Information and Support) project.

Last reported at 2018-Nov-13 06:00 UTC. Time now 2018-Nov-13 07:05 UTC.
Position N 70°42' W 150°00'.

Type: Other ship. MMSI: 303902000.

AWS

Wind from 070 at 14 knots

Barometer 1034.3 mb
Air temperature -14.9 ° C
Dewpoint -17.1 ° C
Water temperature -1.7 ° C

Date/timePositionNaut miles runAvg speedWind from/ knotsBaromVisibWave heightAir tempDewpointWater temp
2018-Nov-13 06:00N 70°42' W 150°00'6 6.0 070 / 141034.3 -14.9-17.1-1.7
2018-Nov-13 05:00N 70°48' W 150°00'2 2.0 070 / 181034.6 -15.1-17.7-1.7
2018-Nov-13 04:00N 70°48' W 149°54'1212.2 060 / 171034.7 -15.2-16.7-1.7
2018-Nov-13 03:00N 71°00' W 149°48'10 9.8 060 / 171035.0 -14.8-17.5-1.6
2018-Nov-13 02:00N 71°06' W 150°12'10 9.8 070 / 121034.9 -14.4-16.5-1.5
2018-Nov-13 01:00N 71°12' W 150°36'7 7.1 050 / 111035.3 -14.6-15.8-1.3
2018-Nov-13 00:00N 71°06' W 150°48'6 6.3 080 / 141035.5 -14.4-16.5-1.6
2018-Nov-12 23:00N 71°00' W 150°54'6 6.3 080 / 111035.1 -14.2-15.7-1.7
2018-Nov-12 22:00N 71°06' W 150°48'8 8.4 070 / 151035.7 -14.3-16.8-1.6
2018-Nov-12 21:00N 71°12' W 151°06'10 9.7 070 / 121035.2 -14.2-16.2-1.5
2018-Nov-12 20:00N 71°12' W 151°36'1111.4 070 / 91035.6 -13.9-15.9-1.6
2018-Nov-12 19:00N 71°18' W 152°06'8 7.7 060 / 91035.7 -13.9-16.0-1.4
2018-Nov-12 18:00N 71°18' W 152°30'1111.3 050 / 101035.8 -13.5-15.9-1.6
2018-Nov-12 17:00N 71°24' W 153°00'1111.3 060 / 81035.5 -12.7-15.5-1.6
2018-Nov-12 16:00N 71°30' W 153°30'10 9.5 070 / 81035.7 -12.1-14.9-1.6
2018-Nov-12 15:00N 71°30' W 154°00'1111.2 080 / 81035.3 -11.2-14.2-1.5
2018-Nov-12 14:00N 71°36' W 154°30'8 7.6 050 / 71035.5 -10.6-14.8-1.6
2018-Nov-12 13:00N 71°36' W 154°54'8 8.3 090 / 71035.5 -10.3-14.4-1.3
2018-Nov-12 12:00N 71°42' W 155°12'8 8.2 040 / 111035.5 -10.3-13.5-0.3
2018-Nov-12 11:00N 71°48' W 155°30'9 9.4 060 / 61035.6 -10.8-14.4-1.6
2018-Nov-12 10:00N 71°48' W 156°00'4 3.7 050 / 61035.6 -10.7-14.4-1.3
2018-Nov-12 09:00N 71°48' W 156°12'1111.1 060 / 71035.8 -10.4-13.9-1.3
2018-Nov-12 08:00N 71°54' W 155°42'1111.1 060 / 61035.6 -10.9-14.5-1.5
2018-Nov-12 07:00N 72°00' W 155°12'9 9.3 060 / 41035.3 -11.3-15.2-1.4
2018-Nov-12 06:00N 72°00' W 154°42'1111.0 040 / 41035.2 -11.5-15.2-1.5
2018-Nov-12 05:00N 72°06' W 154°12'7 7.4 030 / 71034.8 -11.7-15.1-1.5
2018-Nov-12 04:00N 72°06' W 153°48'9 9.5 050 / 51034.7 -11.7-15.3-1.5
2018-Nov-12 03:00N 72°12' W 153°24'0 0.0 010 / 31034.6 -11.2-14.8-0.9
2018-Nov-12 02:00N 72°12' W 153°24'7 7.0 070 / 31034.2 -11.3-14.6-0.9
2018-Nov-12 01:00N 72°06' W 153°36'4 3.7 010 / 81033.8 -11.7-15.3-1.1
2018-Nov-12 00:00N 72°06' W 153°48'10 9.5 020 / 81033.6 -11.6-15.4-0.9
2018-Nov-11 23:00N 72°00' W 154°12'7 7.0 090 / 41033.8 -11.4-14.9-0.9
2018-Nov-11 22:00N 72°06' W 154°24'9 9.5 020 / 71034.0 -11.7-15.4-1.5
2018-Nov-11 21:00N 72°12' W 154°48'8 8.1 070 / 41033.9 -11.8-15.6-1.5
2018-Nov-11 20:00N 72°18' W 155°06'9 9.4 070 / 61033.8 -11.4-15.2-1.4
2018-Nov-11 19:00N 72°24' W 155°30'2 1.8 120 / 41034.2 -11.4-15.2-1.4
2018-Nov-11 18:00N 72°24' W 155°36'6 6.3 120 / 61034.0 -11.2-15.3-1.3
2018-Nov-11 17:00N 72°18' W 155°42'2 1.8 030 / 41033.5 -10.9-14.9-1.4
2018-Nov-11 16:00N 72°18' W 155°48'6 6.3 080 / 71033.0 -10.3-14.0-1.3
2018-Nov-11 15:00N 72°12' W 155°54'2 1.8 090 / 61033.2 -10.1-13.9-1.5
2018-Nov-11 14:00N 72°12' W 156°00'7 7.0 090 / 91032.7 -9.9-13.3-1.5
2018-Nov-11 13:00N 72°06' W 156°12'6 6.3 070 / 101032.7 -10.0-13.9-1.4
2018-Nov-11 12:00N 72°00' W 156°18'8 8.2 090 / 111032.7 -9.4-13.1-0.7
2018-Nov-11 11:00N 72°06' W 156°36'1312.6 090 / 81033.0 -9.4-12.9-0.8
2018-Nov-11 10:00N 72°12' W 157°12'1312.5 070 / 81033.3 -9.2-12.6 0.2
2018-Nov-11 09:00N 72°18' W 157°48'1414.1 070 / 101033.4 -9.5-13.2-0.2
2018-Nov-11 08:00N 72°24' W 158°30'6 6.3 050 / 101033.6 -8.7-12.3-0.3
2018-Nov-11 07:00N 72°30' W 158°36'4 3.6 090 / 101034.3 -8.7-12.8-0.4
2018-Nov-11 06:00N 72°30' W 158°24'8 8.1 060 / 101034.4 -8.8-13.0-0.3
2018-Nov-11 05:00N 72°36' W 158°06'6 6.3 100 / 81034.1 -8.8-12.9 0.1
2018-Nov-11 04:00N 72°42' W 158°00'2 1.8 090 / 121034.3 -8.8-12.7-1.4
2018-Nov-11 03:00N 72°42' W 157°54'6 6.3 080 / 91034.3 -8.7-12.8-1.4
2018-Nov-11 02:00N 72°48' W 157°48'7 7.0 040 / 81034.2 -8.7-12.3-1.5
2018-Nov-11 01:00N 72°54' W 157°36'2 1.8 050 / 91034.1 -8.9-13.1-1.5
2018-Nov-11 00:00N 72°54' W 157°30'7 7.0 040 / 51034.1 -8.9-13.1-1.5
2018-Nov-10 23:00N 73°00' W 157°18'2 1.8 030 / 51034.1 -9.0-13.3-1.4
2018-Nov-10 22:00N 73°00' W 157°12'4 3.5 030 / 71034.1 -9.2-12.4-1.4
2018-Nov-10 21:00N 73°00' W 157°00'7 7.0 030 / 51033.3 -9.0-12.7-1.4
2018-Nov-10 20:00N 72°54' W 156°48'1312.5 090 / 71033.1 -9.1-12.4-1.5
2018-Nov-10 19:00N 72°42' W 156°36'6 6.0 070 / 41032.7 -9.0-13.4-1.5
2018-Nov-10 18:00N 72°36' W 156°36'0 0.0 040 / 61032.0 -8.9-13.3-1.5
2018-Nov-10 17:00N 72°36' W 156°36'6 6.0 060 / 71031.3 -8.5-13.0-1.5
2018-Nov-10 16:00N 72°30' W 156°36'6 6.0 040 / 71030.6 -7.9-12.4-1.4
2018-Nov-10 15:00N 72°24' W 156°36'0 0.0 040 / 131030.2 -7.8-11.9-1.5
2018-Nov-10 14:00N 72°24' W 156°36'6 6.0 040 / 91029.6 -7.2-10.9-1.5
2018-Nov-10 13:00N 72°18' W 156°36'6 6.0 060 / 91029.1 -7.2-10.7-1.4
2018-Nov-10 12:00N 72°12' W 156°36'6 6.0 070 / 111028.6 -7.0-9.8-0.7
2018-Nov-10 11:00N 72°06' W 156°36'0 0.0 070 / 131028.1 -6.7-9.0-1.3
2018-Nov-10 10:00N 72°06' W 156°36'6 6.0 030 / 101027.1 -5.6-8.6-1.2
2018-Nov-10 09:00N 72°00' W 156°36'6 5.6 060 / 61026.8 -5.1-10.0-0.0
2018-Nov-10 08:00N 72°00' W 156°18'6 5.6 080 / 51026.4 -5.6-9.5 0.1
2018-Nov-10 07:00N 72°00' W 156°00'7 7.0 050 / 91026.2 -6.0-8.8-1.5
2018-Nov-10 06:00N 72°06' W 155°48'4 3.7 080 / 51025.6 -6.3-9.1-1.3
2018-Nov-10 05:00N 72°06' W 155°36'6 6.3 080 / 61025.2 -6.4-9.2-1.4
2018-Nov-10 04:00N 72°00' W 155°30'6 5.6 080 / 111024.4 -6.2-9.9-1.3
2018-Nov-10 03:00N 72°00' W 155°12'6 6.0 040 / 111023.9 -5.9-9.5-0.9
2018-Nov-10 02:00N 71°54' W 155°12'4 3.7 070 / 91023.1 -5.6-9.4-1.5
2018-Nov-10 01:00N 71°54' W 155°00'9 9.3 060 / 81023.2 -5.4-9.0-0.8
2018-Nov-10 00:00N 71°54' W 154°30'1111.2 040 / 71023.0 -5.6-9.6-0.8
2018-Nov-09 23:00N 71°54' W 153°54'6 6.3 030 / 81022.7 -6.0-9.9-1.1
2018-Nov-09 22:00N 72°00' W 153°48'7 7.4 030 / 91022.0 -6.0-9.6-0.8
2018-Nov-09 21:00N 72°00' W 154°12'7 7.4 010 / 31022.0 -5.1-9.6-0.6
2018-Nov-09 20:00N 72°00' W 154°36'6 5.6 040 / 81021.4 -5.2-9.4-1.3
2018-Nov-09 19:00N 72°00' W 154°54'6 6.0 050 / 91021.1 -5.1-9.6-0.9
2018-Nov-09 18:00N 72°06' W 154°54'4 3.7 060 / 111020.5 -5.3-9.1-1.0
2018-Nov-09 17:00N 72°06' W 155°06'4 3.7 070 / 101020.1 -5.1-9.2-1.5
2018-Nov-09 16:00N 72°06' W 155°18'6 6.0 030 / 91019.9 -5.1-8.4-1.5
2018-Nov-09 15:00N 72°12' W 155°18'6 5.5 020 / 91019.9 -5.0-7.9-1.4
2018-Nov-09 14:00N 72°12' W 155°00'6 6.3 020 / 101019.8 -5.3-7.3-1.4
2018-Nov-09 13:00N 72°18' W 154°54'5 5.5 020 / 81019.1 -4.6-6.4-1.4
2018-Nov-09 12:00N 72°18' W 154°36'6 6.0 340 / 71019.0 -4.3-5.4-1.4
2018-Nov-09 11:00N 72°12' W 154°36'0 0.0 350 / 61018.7 -3.3-5.6-1.4
2018-Nov-09 10:00N 72°12' W 154°36'6 6.0 250 / 91018.6 -2.4-3.1-1.3
2018-Nov-09 09:00N 72°06' W 154°36'6 6.0 280 / 151018.5 -2.7-3.2-1.5
2018-Nov-09 08:00N 72°00' W 154°36'0 0.0 260 / 171018.5 -2.3-3.4-1.4
2018-Nov-09 07:00N 72°00' W 154°36'6 6.0 250 / 81018.7 -2.3-3.9-0.6
2018-Nov-09 06:00N 71°54' W 154°36'6 6.3 310 / 81018.8 -2.5-3.3-0.8
2018-Nov-09 05:00N 71°48' W 154°30'6 6.0 280 / 51018.9 -2.7-2.7-0.4
2018-Nov-09 04:00N 71°42' W 154°30'6 6.0 250 / 141019.0 -2.2-2.9-0.4
2018-Nov-09 03:00N 71°36' W 154°30'6 6.0 220 / 131019.0 -2.8-3.5-0.5
2018-Nov-09 02:00N 71°30' W 154°30'6 5.7 230 / 131019.2 -3.1-3.7-0.8
2018-Nov-09 01:00N 71°30' W 154°12'27 5.5 220 / 101018.8 -3.3-4.1-1.5
2018-Nov-08 20:00N 71°54' W 153°30'2 1.9 300 / 81019.3 -2.4-5.2-1.5
2018-Nov-08 19:00N 71°54' W 153°24'6 6.3 280 / 101018.9 -2.5-5.1-1.4
2018-Nov-08 18:00N 72°00' W 153°18'2 1.9 280 / 131018.6 -2.7-4.7-1.4
2018-Nov-08 17:00N 72°00' W 153°12'6 6.3 270 / 91018.8 -2.6-4.5-1.2
2018-Nov-08 16:00N 72°06' W 153°06'0 0.0 270 / 81018.6 -2.4-4.8-1.4
2018-Nov-08 15:00N 72°06' W 153°06'0 0.0 260 / 41018.8 -2.7-4.6-1.4
2018-Nov-08 14:00N 72°06' W 153°06'8 8.2 280 / 71018.4 -2.5-5.6-1.4
2018-Nov-08 13:00N 72°00' W 152°48'10 9.6 280 / 71018.1 -2.4-5.3-1.4
2018-Nov-08 12:00N 71°54' W 152°24'10 9.6 280 / 91017.7 -2.3-6.0-1.4
2018-Nov-08 11:00N 71°48' W 152°00'8 8.2 270 / 101017.6 -2.8-4.8-1.5
2018-Nov-08 10:00N 71°42' W 151°42'8 7.5 270 / 101017.2 -1.9-5.9-1.5
2018-Nov-08 09:00N 71°42' W 151°18'10 9.6 280 / 101016.7 -2.1-2.9-1.5
2018-Nov-08 08:00N 71°36' W 150°54'10 9.7 290 / 111016.2 -2.6-2.6-1.4
2018-Nov-08 07:00N 71°30' W 150°30'10 9.7 280 / 71015.8 -2.8-2.8-1.4
2018-Nov-08 06:00N 71°24' W 150°06'8 7.7 240 / 121015.5 -3.9-3.9-1.5
2018-Nov-08 05:00N 71°24' W 149°42'8 8.3 230 / 121015.5 -3.6-4.0-1.5
2018-Nov-08 04:00N 71°18' W 149°24'10 9.8 220 / 101015.7 -3.8-4.7-1.5
2018-Nov-08 03:00N 71°12' W 149°00'6 5.8 190 / 111015.8 -3.6-5.1-1.5
2018-Nov-08 02:00N 71°12' W 148°42'0 0.0 220 / 101015.9 -3.0-5.1-1.4
2018-Nov-08 01:00N 71°12' W 148°42'6 6.3 210 / 101016.2 -2.6-4.8-1.5
2018-Nov-08 00:00N 71°06' W 148°48'6 6.0 210 / 101016.3 -2.5-5.5-1.4
2018-Nov-07 23:00N 71°00' W 148°48'6 6.0 210 / 111016.1 -2.6-6.1-1.6
2018-Nov-07 22:00N 70°54' W 148°48'0 0.0 210 / 101016.9 -3.5-5.5-1.6
2018-Nov-07 21:00N 70°54' W 148°48'6 6.3 220 / 101016.8 -4.1-5.9-1.7
2018-Nov-07 20:00N 70°48' W 148°54'6 6.0 190 / 91016.5 -4.1-5.7-1.7
2018-Nov-07 19:00N 70°42' W 148°54'0 0.0 190 / 111016.4 -4.0-5.8-1.7
2018-Nov-07 18:00N 70°42' W 148°54'8 8.4 190 / 111016.4 -3.8-5.6-1.7
2018-Nov-07 17:00N 70°48' W 149°12'6 5.9 210 / 131015.5 -3.1-5.9-1.7
2018-Nov-07 16:00N 70°48' W 148°54'10 9.9 200 / 151016.3 -2.4-5.2-1.7
2018-Nov-07 15:00N 70°42' W 148°30'1211.6 190 / 131016.9 -3.0-5.8-1.7
2018-Nov-07 14:00N 70°36' W 148°00'8 8.0 220 / 121016.9 -2.0-5.7-1.7
2018-Nov-07 13:00N 70°36' W 147°36'2 2.0 220 / 91017.1 -2.9-5.4-1.7
2018-Nov-07 12:00N 70°36' W 147°30'2 2.0 260 / 121016.7 -2.8-5.5-1.7
2018-Nov-07 11:00N 70°36' W 147°24'6 6.0 190 / 91017.0 -2.2-5.1-1.7
2018-Nov-07 10:00N 70°42' W 147°24'6 6.3 160 / 141016.1 -4.2-6.3-1.7
2018-Nov-07 09:00N 70°48' W 147°18'0 0.0 160 / 171016.4 -5.5-6.9-1.7
2018-Nov-07 08:00N 70°48' W 147°18'6 6.0 130 / 191015.5 -5.5-6.8-1.7
2018-Nov-07 07:00N 70°54' W 147°18'4 3.9 160 / 191015.0 -5.3-6.6-1.6
2018-Nov-07 06:00N 70°54' W 147°06'6 6.3 130 / 181015.8 -4.9-6.2-1.3
2018-Nov-07 05:00N 71°00' W 147°12'0 0.0 120 / 221015.4 -5.5-6.4-1.5
2018-Nov-07 04:00N 71°00' W 147°12'10 9.8 130 / 261015.8 -6.3-7.3-1.5
2018-Nov-07 03:00N 71°00' W 146°42'8 7.8 110 / 151017.8 -7.4-8.0-1.6
2018-Nov-07 02:00N 71°00' W 146°18'8 7.8 100 / 111018.0 -7.6-8.4-1.6
2018-Nov-07 01:00N 71°00' W 145°54'   110 / 251018.0 -9.0-9.7-1.5
Track history (hours):
 
Tides and Currents Weather Stations Pressure Air Temp Water Temp Dewpoint Dewpoint Depression Visibility Wind Speed Wind Dir Waves Ship Positions

Oceanographic research ship USCGC Healy (USA)

Detailed information on ship capabilities available from University of Delaware's Ocean Information Center and ARCUS's ALIAS (Arctic Logistics Information and Support) project.

Last reported at 2018-Nov-13 06:00 UTC. Time now 2018-Nov-13 07:05 UTC.
Position N 70°42' W 150°00'.

Type: Other ship. MMSI: 303902000.

AWS

Wind from 070 at 14 knots

Barometer 1034.3 mb
Air temperature -14.9 ° C
Dewpoint -17.1 ° C
Water temperature -1.7 ° C

Date/timePositionNaut miles runAvg speedWind from/ knotsBaromVisibWave heightAir tempDewpointWater temp
2018-Nov-13 06:00N 70°42' W 150°00'6 6.0 070 / 141034.3 -14.9-17.1-1.7
2018-Nov-13 05:00N 70°48' W 150°00'2 2.0 070 / 181034.6 -15.1-17.7-1.7
2018-Nov-13 04:00N 70°48' W 149°54'1212.2 060 / 171034.7 -15.2-16.7-1.7
2018-Nov-13 03:00N 71°00' W 149°48'10 9.8 060 / 171035.0 -14.8-17.5-1.6
2018-Nov-13 02:00N 71°06' W 150°12'10 9.8 070 / 121034.9 -14.4-16.5-1.5
2018-Nov-13 01:00N 71°12' W 150°36'7 7.1 050 / 111035.3 -14.6-15.8-1.3
2018-Nov-13 00:00N 71°06' W 150°48'6 6.3 080 / 141035.5 -14.4-16.5-1.6
2018-Nov-12 23:00N 71°00' W 150°54'6 6.3 080 / 111035.1 -14.2-15.7-1.7
2018-Nov-12 22:00N 71°06' W 150°48'8 8.4 070 / 151035.7 -14.3-16.8-1.6
2018-Nov-12 21:00N 71°12' W 151°06'10 9.7 070 / 121035.2 -14.2-16.2-1.5
2018-Nov-12 20:00N 71°12' W 151°36'1111.4 070 / 91035.6 -13.9-15.9-1.6
2018-Nov-12 19:00N 71°18' W 152°06'8 7.7 060 / 91035.7 -13.9-16.0-1.4
2018-Nov-12 18:00N 71°18' W 152°30'1111.3 050 / 101035.8 -13.5-15.9-1.6
2018-Nov-12 17:00N 71°24' W 153°00'1111.3 060 / 81035.5 -12.7-15.5-1.6
2018-Nov-12 16:00N 71°30' W 153°30'10 9.5 070 / 81035.7 -12.1-14.9-1.6
2018-Nov-12 15:00N 71°30' W 154°00'1111.2 080 / 81035.3 -11.2-14.2-1.5
2018-Nov-12 14:00N 71°36' W 154°30'8 7.6 050 / 71035.5 -10.6-14.8-1.6
2018-Nov-12 13:00N 71°36' W 154°54'8 8.3 090 / 71035.5 -10.3-14.4-1.3
2018-Nov-12 12:00N 71°42' W 155°12'8 8.2 040 / 111035.5 -10.3-13.5-0.3
2018-Nov-12 11:00N 71°48' W 155°30'9 9.4 060 / 61035.6 -10.8-14.4-1.6
2018-Nov-12 10:00N 71°48' W 156°00'4 3.7 050 / 61035.6 -10.7-14.4-1.3
2018-Nov-12 09:00N 71°48' W 156°12'1111.1 060 / 71035.8 -10.4-13.9-1.3
2018-Nov-12 08:00N 71°54' W 155°42'1111.1 060 / 61035.6 -10.9-14.5-1.5
2018-Nov-12 07:00N 72°00' W 155°12'9 9.3 060 / 41035.3 -11.3-15.2-1.4
2018-Nov-12 06:00N 72°00' W 154°42'1111.0 040 / 41035.2 -11.5-15.2-1.5
2018-Nov-12 05:00N 72°06' W 154°12'7 7.4 030 / 71034.8 -11.7-15.1-1.5
2018-Nov-12 04:00N 72°06' W 153°48'9 9.5 050 / 51034.7 -11.7-15.3-1.5
2018-Nov-12 03:00N 72°12' W 153°24'0 0.0 010 / 31034.6 -11.2-14.8-0.9
2018-Nov-12 02:00N 72°12' W 153°24'7 7.0 070 / 31034.2 -11.3-14.6-0.9
2018-Nov-12 01:00N 72°06' W 153°36'4 3.7 010 / 81033.8 -11.7-15.3-1.1
2018-Nov-12 00:00N 72°06' W 153°48'10 9.5 020 / 81033.6 -11.6-15.4-0.9
2018-Nov-11 23:00N 72°00' W 154°12'7 7.0 090 / 41033.8 -11.4-14.9-0.9
2018-Nov-11 22:00N 72°06' W 154°24'9 9.5 020 / 71034.0 -11.7-15.4-1.5
2018-Nov-11 21:00N 72°12' W 154°48'8 8.1 070 / 41033.9 -11.8-15.6-1.5
2018-Nov-11 20:00N 72°18' W 155°06'9 9.4 070 / 61033.8 -11.4-15.2-1.4
2018-Nov-11 19:00N 72°24' W 155°30'2 1.8 120 / 41034.2 -11.4-15.2-1.4
2018-Nov-11 18:00N 72°24' W 155°36'6 6.3 120 / 61034.0 -11.2-15.3-1.3
2018-Nov-11 17:00N 72°18' W 155°42'2 1.8 030 / 41033.5 -10.9-14.9-1.4
2018-Nov-11 16:00N 72°18' W 155°48'6 6.3 080 / 71033.0 -10.3-14.0-1.3
2018-Nov-11 15:00N 72°12' W 155°54'2 1.8 090 / 61033.2 -10.1-13.9-1.5
2018-Nov-11 14:00N 72°12' W 156°00'7 7.0 090 / 91032.7 -9.9-13.3-1.5
2018-Nov-11 13:00N 72°06' W 156°12'6 6.3 070 / 101032.7 -10.0-13.9-1.4
2018-Nov-11 12:00N 72°00' W 156°18'8 8.2 090 / 111032.7 -9.4-13.1-0.7
2018-Nov-11 11:00N 72°06' W 156°36'1312.6 090 / 81033.0 -9.4-12.9-0.8
2018-Nov-11 10:00N 72°12' W 157°12'1312.5 070 / 81033.3 -9.2-12.6 0.2
2018-Nov-11 09:00N 72°18' W 157°48'1414.1 070 / 101033.4 -9.5-13.2-0.2
2018-Nov-11 08:00N 72°24' W 158°30'6 6.3 050 / 101033.6 -8.7-12.3-0.3
2018-Nov-11 07:00N 72°30' W 158°36'4 3.6 090 / 101034.3 -8.7-12.8-0.4
2018-Nov-11 06:00N 72°30' W 158°24'8 8.1 060 / 101034.4 -8.8-13.0-0.3
2018-Nov-11 05:00N 72°36' W 158°06'6 6.3 100 / 81034.1 -8.8-12.9 0.1
2018-Nov-11 04:00N 72°42' W 158°00'2 1.8 090 / 121034.3 -8.8-12.7-1.4
2018-Nov-11 03:00N 72°42' W 157°54'6 6.3 080 / 91034.3 -8.7-12.8-1.4
2018-Nov-11 02:00N 72°48' W 157°48'7 7.0 040 / 81034.2 -8.7-12.3-1.5
2018-Nov-11 01:00N 72°54' W 157°36'2 1.8 050 / 91034.1 -8.9-13.1-1.5
2018-Nov-11 00:00N 72°54' W 157°30'7 7.0 040 / 51034.1 -8.9-13.1-1.5
2018-Nov-10 23:00N 73°00' W 157°18'2 1.8 030 / 51034.1 -9.0-13.3-1.4
2018-Nov-10 22:00N 73°00' W 157°12'4 3.5 030 / 71034.1 -9.2-12.4-1.4
2018-Nov-10 21:00N 73°00' W 157°00'7 7.0 030 / 51033.3 -9.0-12.7-1.4
2018-Nov-10 20:00N 72°54' W 156°48'1312.5 090 / 71033.1 -9.1-12.4-1.5
2018-Nov-10 19:00N 72°42' W 156°36'6 6.0 070 / 41032.7 -9.0-13.4-1.5
2018-Nov-10 18:00N 72°36' W 156°36'0 0.0 040 / 61032.0 -8.9-13.3-1.5
2018-Nov-10 17:00N 72°36' W 156°36'6 6.0 060 / 71031.3 -8.5-13.0-1.5
2018-Nov-10 16:00N 72°30' W 156°36'6 6.0 040 / 71030.6 -7.9-12.4-1.4
2018-Nov-10 15:00N 72°24' W 156°36'0 0.0 040 / 131030.2 -7.8-11.9-1.5
2018-Nov-10 14:00N 72°24' W 156°36'6 6.0 040 / 91029.6 -7.2-10.9-1.5
2018-Nov-10 13:00N 72°18' W 156°36'6 6.0 060 / 91029.1 -7.2-10.7-1.4
2018-Nov-10 12:00N 72°12' W 156°36'6 6.0 070 / 111028.6 -7.0-9.8-0.7
2018-Nov-10 11:00N 72°06' W 156°36'0 0.0 070 / 131028.1 -6.7-9.0-1.3
2018-Nov-10 10:00N 72°06' W 156°36'6 6.0 030 / 101027.1 -5.6-8.6-1.2
2018-Nov-10 09:00N 72°00' W 156°36'6 5.6 060 / 61026.8 -5.1-10.0-0.0
2018-Nov-10 08:00N 72°00' W 156°18'6 5.6 080 / 51026.4 -5.6-9.5 0.1
2018-Nov-10 07:00N 72°00' W 156°00'7 7.0 050 / 91026.2 -6.0-8.8-1.5
2018-Nov-10 06:00N 72°06' W 155°48'4 3.7 080 / 51025.6 -6.3-9.1-1.3
2018-Nov-10 05:00N 72°06' W 155°36'6 6.3 080 / 61025.2 -6.4-9.2-1.4
2018-Nov-10 04:00N 72°00' W 155°30'6 5.6 080 / 111024.4 -6.2-9.9-1.3
2018-Nov-10 03:00N 72°00' W 155°12'6 6.0 040 / 111023.9 -5.9-9.5-0.9
2018-Nov-10 02:00N 71°54' W 155°12'4 3.7 070 / 91023.1 -5.6-9.4-1.5
2018-Nov-10 01:00N 71°54' W 155°00'9 9.3 060 / 81023.2 -5.4-9.0-0.8
2018-Nov-10 00:00N 71°54' W 154°30'1111.2 040 / 71023.0 -5.6-9.6-0.8
2018-Nov-09 23:00N 71°54' W 153°54'6 6.3 030 / 81022.7 -6.0-9.9-1.1
2018-Nov-09 22:00N 72°00' W 153°48'7 7.4 030 / 91022.0 -6.0-9.6-0.8
2018-Nov-09 21:00N 72°00' W 154°12'7 7.4 010 / 31022.0 -5.1-9.6-0.6
2018-Nov-09 20:00N 72°00' W 154°36'6 5.6 040 / 81021.4 -5.2-9.4-1.3
2018-Nov-09 19:00N 72°00' W 154°54'6 6.0 050 / 91021.1 -5.1-9.6-0.9
2018-Nov-09 18:00N 72°06' W 154°54'4 3.7 060 / 111020.5 -5.3-9.1-1.0
2018-Nov-09 17:00N 72°06' W 155°06'4 3.7 070 / 101020.1 -5.1-9.2-1.5
2018-Nov-09 16:00N 72°06' W 155°18'6 6.0 030 / 91019.9 -5.1-8.4-1.5
2018-Nov-09 15:00N 72°12' W 155°18'6 5.5 020 / 91019.9 -5.0-7.9-1.4
2018-Nov-09 14:00N 72°12' W 155°00'6 6.3 020 / 101019.8 -5.3-7.3-1.4
2018-Nov-09 13:00N 72°18' W 154°54'5 5.5 020 / 81019.1 -4.6-6.4-1.4
2018-Nov-09 12:00N 72°18' W 154°36'6 6.0 340 / 71019.0 -4.3-5.4-1.4
2018-Nov-09 11:00N 72°12' W 154°36'0 0.0 350 / 61018.7 -3.3-5.6-1.4
2018-Nov-09 10:00N 72°12' W 154°36'6 6.0 250 / 91018.6 -2.4-3.1-1.3
2018-Nov-09 09:00N 72°06' W 154°36'6 6.0 280 / 151018.5 -2.7-3.2-1.5
2018-Nov-09 08:00N 72°00' W 154°36'0 0.0 260 / 171018.5 -2.3-3.4-1.4
2018-Nov-09 07:00N 72°00' W 154°36'6 6.0 250 / 81018.7 -2.3-3.9-0.6
2018-Nov-09 06:00N 71°54' W 154°36'6 6.3 310 / 81018.8 -2.5-3.3-0.8
2018-Nov-09 05:00N 71°48' W 154°30'6 6.0 280 / 51018.9 -2.7-2.7-0.4
2018-Nov-09 04:00N 71°42' W 154°30'6 6.0 250 / 141019.0 -2.2-2.9-0.4
2018-Nov-09 03:00N 71°36' W 154°30'6 6.0 220 / 131019.0 -2.8-3.5-0.5
2018-Nov-09 02:00N 71°30' W 154°30'6 5.7 230 / 131019.2 -3.1-3.7-0.8
2018-Nov-09 01:00N 71°30' W 154°12'27 5.5 220 / 101018.8 -3.3-4.1-1.5
2018-Nov-08 20:00N 71°54' W 153°30'2 1.9 300 / 81019.3 -2.4-5.2-1.5
2018-Nov-08 19:00N 71°54' W 153°24'6 6.3 280 / 101018.9 -2.5-5.1-1.4
2018-Nov-08 18:00N 72°00' W 153°18'2 1.9 280 / 131018.6 -2.7-4.7-1.4
2018-Nov-08 17:00N 72°00' W 153°12'6 6.3 270 / 91018.8 -2.6-4.5-1.2
2018-Nov-08 16:00N 72°06' W 153°06'0 0.0 270 / 81018.6 -2.4-4.8-1.4
2018-Nov-08 15:00N 72°06' W 153°06'0 0.0 260 / 41018.8 -2.7-4.6-1.4
2018-Nov-08 14:00N 72°06' W 153°06'8 8.2 280 / 71018.4 -2.5-5.6-1.4
2018-Nov-08 13:00N 72°00' W 152°48'10 9.6 280 / 71018.1 -2.4-5.3-1.4
2018-Nov-08 12:00N 71°54' W 152°24'10 9.6 280 / 91017.7 -2.3-6.0-1.4
2018-Nov-08 11:00N 71°48' W 152°00'8 8.2 270 / 101017.6 -2.8-4.8-1.5
2018-Nov-08 10:00N 71°42' W 151°42'8 7.5 270 / 101017.2 -1.9-5.9-1.5
2018-Nov-08 09:00N 71°42' W 151°18'10 9.6 280 / 101016.7 -2.1-2.9-1.5
2018-Nov-08 08:00N 71°36' W 150°54'10 9.7 290 / 111016.2 -2.6-2.6-1.4
2018-Nov-08 07:00N 71°30' W 150°30'10 9.7 280 / 71015.8 -2.8-2.8-1.4
2018-Nov-08 06:00N 71°24' W 150°06'8 7.7 240 / 121015.5 -3.9-3.9-1.5
2018-Nov-08 05:00N 71°24' W 149°42'8 8.3 230 / 121015.5 -3.6-4.0-1.5
2018-Nov-08 04:00N 71°18' W 149°24'10 9.8 220 / 101015.7 -3.8-4.7-1.5
2018-Nov-08 03:00N 71°12' W 149°00'6 5.8 190 / 111015.8 -3.6-5.1-1.5
2018-Nov-08 02:00N 71°12' W 148°42'0 0.0 220 / 101015.9 -3.0-5.1-1.4
2018-Nov-08 01:00N 71°12' W 148°42'6 6.3 210 / 101016.2 -2.6-4.8-1.5
2018-Nov-08 00:00N 71°06' W 148°48'6 6.0 210 / 101016.3 -2.5-5.5-1.4
2018-Nov-07 23:00N 71°00' W 148°48'6 6.0 210 / 111016.1 -2.6-6.1-1.6
2018-Nov-07 22:00N 70°54' W 148°48'0 0.0 210 / 101016.9 -3.5-5.5-1.6
2018-Nov-07 21:00N 70°54' W 148°48'6 6.3 220 / 101016.8 -4.1-5.9-1.7
2018-Nov-07 20:00N 70°48' W 148°54'6 6.0 190 / 91016.5 -4.1-5.7-1.7
2018-Nov-07 19:00N 70°42' W 148°54'0 0.0 190 / 111016.4 -4.0-5.8-1.7
2018-Nov-07 18:00N 70°42' W 148°54'8 8.4 190 / 111016.4 -3.8-5.6-1.7
2018-Nov-07 17:00N 70°48' W 149°12'6 5.9 210 / 131015.5 -3.1-5.9-1.7
2018-Nov-07 16:00N 70°48' W 148°54'10 9.9 200 / 151016.3 -2.4-5.2-1.7
2018-Nov-07 15:00N 70°42' W 148°30'1211.6 190 / 131016.9 -3.0-5.8-1.7
2018-Nov-07 14:00N 70°36' W 148°00'8 8.0 220 / 121016.9 -2.0-5.7-1.7
2018-Nov-07 13:00N 70°36' W 147°36'2 2.0 220 / 91017.1 -2.9-5.4-1.7
2018-Nov-07 12:00N 70°36' W 147°30'2 2.0 260 / 121016.7 -2.8-5.5-1.7
2018-Nov-07 11:00N 70°36' W 147°24'6 6.0 190 / 91017.0 -2.2-5.1-1.7
2018-Nov-07 10:00N 70°42' W 147°24'6 6.3 160 / 141016.1 -4.2-6.3-1.7
2018-Nov-07 09:00N 70°48' W 147°18'0 0.0 160 / 171016.4 -5.5-6.9-1.7
2018-Nov-07 08:00N 70°48' W 147°18'6 6.0 130 / 191015.5 -5.5-6.8-1.7
2018-Nov-07 07:00N 70°54' W 147°18'4 3.9 160 / 191015.0 -5.3-6.6-1.6
2018-Nov-07 06:00N 70°54' W 147°06'6 6.3 130 / 181015.8 -4.9-6.2-1.3
2018-Nov-07 05:00N 71°00' W 147°12'0 0.0 120 / 221015.4 -5.5-6.4-1.5
2018-Nov-07 04:00N 71°00' W 147°12'10 9.8 130 / 261015.8 -6.3-7.3-1.5
2018-Nov-07 03:00N 71°00' W 146°42'8 7.8 110 / 151017.8 -7.4-8.0-1.6
2018-Nov-07 02:00N 71°00' W 146°18'8 7.8 100 / 111018.0 -7.6-8.4-1.6
2018-Nov-07 01:00N 71°00' W 145°54'   110 / 251018.0 -9.0-9.7-1.5

Dump ship's entire track history